Date,TemperatureHighF,TemperatureAvgF,TemperatureLowF,DewpointHighF,DewpointAvgF,DewpointLowF,HumidityHigh,HumidityAvg,HumidityLow,PressureMaxIn,PressureMinIn,WindSpeedMaxMPH,WindSpeedAvgMPH,GustSpeedMaxMPH,PrecipitationSumIn
2012-1-1,76.0,67.6,63.0,-99.9,-99.9,-99.9,0,0,100,0.00,40.00,9,1,14,0.00
2012-1-2,75.0,69.3,64.0,-99.9,-99.9,-99.9,0,0,100,0.00,40.00,3,0,5,0.00
2012-1-3,76.0,71.2,66.0,-99.9,-99.9,-99.9,0,0,100,0.00,40.00,6,1,8,0.00
2012-1-4,74.0,69.3,65.0,-99.9,-99.9,-99.9,0,0,100,0.00,40.00,10,3,16,0.00
2012-1-5,76.0,71.2,68.0,-99.9,-99.9,-99.9,0,0,100,0.00,40.00,9,4,14,0.01
2012-1-6,76.0,70.4,65.0,-99.9,-99.9,-99.9,0,0,100,0.00,40.00,8,4,12,0.01
2012-1-7,77.0,69.4,64.0,-99.9,-99.9,-99.9,0,0,100,0.00,40.00,9,2,13,0.00
2012-1-8,76.0,67.8,62.0,-99.9,-99.9,-99.9,0,0,100,0.00,40.00,9,2,14,0.00
2012-1-9,76.0,69.5,65.0,-99.9,-99.9,-99.9,0,0,100,0.00,40.00,9,3,14,0.00
2012-1-10,76.0,70.0,65.0,-99.9,-99.9,-99.9,0,0,100,0.00,40.00,10,4,15,0.00
2012-1-11,74.0,68.1,64.0,-99.9,-99.9,-99.9,0,0,100,0.00,40.00,5,0,7,0.23
2012-1-12,75.0,67.6,62.0,-99.9,-99.9,-99.9,0,0,100,0.00,40.00,7,3,14,0.00
2012-1-13,73.0,67.7,60.0,-99.9,-99.9,-99.9,0,0,100,0.00,40.00,10,4,20,0.00
2012-1-14,73.0,66.4,58.0,-99.9,-99.9,-99.9,0,0,100,0.00,40.00,6,2,12,0.00
2012-1-15,80.0,73.5,63.0,-99.9,-99.9,-99.9,0,0,100,0.00,40.00,9,4,15,0.00
2012-1-16,75.0,74.3,74.0,-99.9,-99.9,-99.9,0,0,100,0.00,40.00,7,5,13,0.00
2012-1-17,77.0,75.4,74.0,-99.9,-99.9,-99.9,0,0,100,0.00,40.00,2,1,5,0.00
2012-1-18,82.0,75.1,67.0,-99.9,-99.9,-99.9,0,0,100,0.00,40.00,7,3,13,0.00
2012-1-19,78.0,72.7,67.0,-99.9,-99.9,-99.9,0,0,100,0.00,40.00,5,2,7,0.00
2012-1-20,79.0,71.8,67.0,-99.9,-99.9,-99.9,0,0,100,0.00,40.00,10,4,16,0.00
2012-1-21,78.0,72.1,68.0,-99.9,-99.9,-99.9,0,0,100,0.00,40.00,13,5,21,0.00
2012-1-22,76.0,72.2,68.0,-99.9,-99.9,-99.9,0,0,100,0.00,40.00,13,6,20,0.00
2012-1-23,78.0,69.6,63.0,-99.9,-99.9,-99.9,0,0,100,0.00,40.00,3,1,3,0.00
2012-1-24,76.0,70.2,62.0,-99.9,-99.9,-99.9,0,0,100,0.00,40.00,5,2,7,0.00
2012-1-25,78.0,72.3,68.0,-99.9,-99.9,-99.9,0,0,100,0.00,40.00,7,4,12,0.03
2012-1-26,76.0,72.3,68.0,-99.9,-99.9,-99.9,0,0,100,0.00,40.00,9,4,18,0.16
2012-1-27,76.0,70.2,65.0,-99.9,-99.9,-99.9,0,0,100,0.00,40.00,5,1,7,0.00
2012-1-28,75.0,68.8,64.0,-99.9,-99.9,-99.9,0,0,100,0.00,40.00,9,3,14,0.00
2012-1-29,75.0,71.2,67.0,-99.9,-99.9,-99.9,0,0,100,0.00,40.00,13,6,20,0.00
2012-1-30,75.0,70.1,67.0,-99.9,-99.9,-99.9,0,0,100,0.00,40.00,10,5,17,0.02
2012-1-31,77.0,70.1,66.0,-99.9,-99.9,-99.9,0,0,100,0.00,40.00,8,3,12,0.00
2012-2-1,77.0,69.3,64.0,-99.9,-99.9,-99.9,0,0,100,0.00,40.00,7,2,12,0.00
2012-2-2,76.0,69.5,64.0,-99.9,-99.9,-99.9,0,0,100,0.00,40.00,9,4,16,0.00
2012-2-3,77.0,68.3,61.0,-99.9,-99.9,-99.9,0,0,100,0.00,40.00,7,2,12,0.00
2012-2-4,78.0,71.2,63.0,-99.9,-99.9,-99.9,0,0,100,0.00,40.00,12,3,22,0.00
2012-2-5,72.0,69.2,65.0,-99.9,-99.9,-99.9,0,0,100,0.00,40.00,6,2,12,0.17
2012-2-6,75.0,68.5,62.0,-99.9,-99.9,-99.9,0,0,100,0.00,40.00,6,1,9,0.00
2012-2-7,71.0,66.3,62.0,-99.9,-99.9,-99.9,0,0,100,0.00,40.00,14,6,24,0.46
2012-2-8,71.0,67.1,66.0,-99.9,-99.9,-99.9,0,0,100,0.00,40.00,13,8,24,0.00
2012-2-9,72.0,66.4,60.0,-99.9,-99.9,-99.9,0,0,100,0.00,40.00,9,3,13,0.00
2012-2-10,74.0,68.6,63.0,-99.9,-99.9,-99.9,0,0,100,0.00,40.00,13,4,21,0.00
2012-2-11,75.0,69.7,64.0,-99.9,-99.9,-99.9,0,0,100,0.00,40.00,12,5,18,0.02
2012-2-12,76.0,70.6,68.0,-99.9,-99.9,-99.9,0,0,100,0.00,40.00,9,3,14,0.08
2012-2-13,74.0,70.8,69.0,-99.9,-99.9,-99.9,0,0,100,0.00,40.00,10,4,15,0.06
2012-2-14,76.0,69.7,64.0,-99.9,-99.9,-99.9,0,0,100,0.00,40.00,6,2,9,0.00
2012-2-15,79.0,69.4,62.0,-99.9,-99.9,-99.9,0,0,100,0.00,40.00,9,3,13,0.00
2012-2-16,76.0,71.3,67.0,-99.9,-99.9,-99.9,0,0,100,0.00,40.00,10,6,14,0.09
2012-2-17,75.0,71.5,68.0,-99.9,-99.9,-99.9,0,0,100,0.00,40.00,12,8,17,0.00
2012-2-18,75.0,71.4,68.0,-99.9,-99.9,-99.9,0,0,100,0.00,40.00,16,10,24,0.08
2012-2-19,74.0,70.2,67.0,-99.9,-99.9,-99.9,0,0,100,0.00,40.00,14,8,20,0.66
2012-2-20,76.0,71.4,69.0,-99.9,-99.9,-99.9,0,0,100,0.00,40.00,13,8,20,0.00
2012-2-21,74.0,71.3,69.0,-99.9,-99.9,-99.9,0,0,100,0.00,40.00,15,8,25,0.04
2012-2-22,75.0,71.5,70.0,-99.9,-99.9,-99.9,0,0,100,0.00,40.00,9,7,14,0.01
2012-2-23,76.0,71.3,69.0,-99.9,-99.9,-99.9,0,0,100,0.00,40.00,12,7,16,0.38
2012-2-24,74.0,69.9,65.0,-99.9,-99.9,-99.9,0,0,100,0.00,40.00,8,2,12,0.35
2012-2-25,74.0,68.0,64.0,-99.9,-99.9,-99.9,0,0,100,0.00,40.00,6,1,8,0.36
2012-2-27,75.0,70.7,68.0,-99.9,-99.9,-99.9,0,0,100,0.00,40.00,13,9,18,0.69
2012-2-28,74.0,70.8,68.0,-99.9,-99.9,-99.9,0,0,100,0.00,40.00,10,7,16,0.07
2012-2-29,73.0,69.8,68.0,-99.9,-99.9,-99.9,0,0,100,0.00,40.00,10,5,16,0.17
2012-3-1,74.0,71.8,69.0,-99.9,-99.9,-99.9,0,0,100,0.00,40.00,12,6,18,0.00
2012-3-2,77.0,70.3,67.0,-99.9,-99.9,-99.9,0,0,100,0.00,40.00,7,2,10,0.00
2012-3-3,72.0,68.6,67.0,-99.9,-99.9,-99.9,0,0,100,0.00,40.00,9,4,16,1.46
2012-3-6,68.0,66.6,66.0,-99.9,-99.9,-99.9,0,0,100,0.00,40.00,7,6,12,0.84
2012-3-7,71.0,69.2,68.0,-99.9,-99.9,-99.9,0,0,100,0.00,40.00,9,7,17,0.03
2012-3-8,73.0,70.2,65.0,-99.9,-99.9,-99.9,0,0,100,0.00,40.00,12,8,18,0.10
2012-3-9,70.0,65.4,61.0,-99.9,-99.9,-99.9,0,0,100,0.00,40.00,14,8,25,6.58
2012-3-10,73.0,72.2,72.0,-99.9,-99.9,-99.9,0,0,100,0.00,40.00,16,12,28,0.01
2012-3-11,70.0,68.7,68.0,-99.9,-99.9,-99.9,0,0,100,0.00,40.00,12,9,16,0.45
2012-3-12,73.0,71.1,69.0,-99.9,-99.9,-99.9,0,0,100,0.00,40.00,12,9,16,0.00
2012-3-13,74.0,69.7,65.0,-99.9,-99.9,-99.9,0,0,100,0.00,40.00,10,6,13,0.00
2012-3-14,75.0,69.8,65.0,-99.9,-99.9,-99.9,0,0,100,0.00,40.00,13,5,16,0.01
2012-3-15,75.0,69.5,65.0,-99.9,-99.9,-99.9,0,0,100,0.00,40.00,12,6,18,0.03
2012-3-16,77.0,71.5,67.0,-99.9,-99.9,-99.9,0,0,100,0.00,40.00,15,7,21,0.03
2012-3-17,76.0,70.9,66.0,-99.9,-99.9,-99.9,0,0,100,0.00,40.00,14,7,22,0.06
2012-3-18,73.0,70.2,68.0,-99.9,-99.9,-99.9,0,0,100,0.00,40.00,14,8,22,0.77
2012-3-19,77.0,70.5,64.0,-99.9,-99.9,-99.9,0,0,100,0.00,40.00,12,4,17,0.04
2012-3-20,77.0,70.2,64.0,-99.9,-99.9,-99.9,0,0,100,0.00,40.00,10,5,15,0.00
2012-3-21,72.0,68.6,66.0,-99.9,-99.9,-99.9,0,0,100,0.00,40.00,9,3,12,0.04
2012-3-23,76.0,71.3,67.0,-99.9,-99.9,-99.9,0,0,100,0.00,40.00,14,9,21,0.26
2012-3-24,75.0,70.3,66.0,-99.9,-99.9,-99.9,0,0,100,0.00,40.00,15,10,23,0.17
2012-3-25,75.0,70.4,66.0,-99.9,-99.9,-99.9,0,0,100,0.00,40.00,9,6,16,0.28
2012-3-26,74.0,69.5,65.0,-99.9,-99.9,-99.9,0,0,100,0.00,40.00,10,6,16,0.32
2012-3-27,73.0,68.7,64.0,-99.9,-99.9,-99.9,0,0,100,0.00,40.00,13,4,16,0.05
2012-3-28,75.0,67.7,61.0,-99.9,-99.9,-99.9,0,0,100,0.00,40.00,10,3,16,0.00
2012-3-29,77.0,69.4,62.0,-99.9,-99.9,-99.9,0,0,100,0.00,40.00,9,3,14,0.00
2012-3-30,76.0,70.7,66.0,-99.9,-99.9,-99.9,0,0,100,0.00,40.00,14,8,20,0.06
2012-3-31,76.0,71.4,67.0,-99.9,-99.9,-99.9,0,0,100,0.00,40.00,13,8,22,0.00
2012-4-1,79.0,71.1,64.0,-99.9,-99.9,-99.9,0,0,100,0.00,40.00,9,3,13,0.00
2012-4-2,80.0,71.0,65.0,-99.9,-99.9,-99.9,0,0,100,0.00,40.00,12,3,15,0.00
2012-4-3,79.0,70.5,65.0,-99.9,-99.9,-99.9,0,0,100,0.00,40.00,12,4,20,0.00
2012-4-4,77.0,72.6,69.0,-99.9,-99.9,-99.9,0,0,100,0.00,40.00,9,6,14,0.00
2012-4-5,74.0,71.4,70.0,-99.9,-99.9,-99.9,0,0,100,0.00,40.00,9,6,15,0.09
2012-4-6,75.0,71.2,69.0,-99.9,-99.9,-99.9,0,0,100,0.00,40.00,13,6,18,0.04
2012-4-7,75.0,71.3,69.0,-99.9,-99.9,-99.9,0,0,100,0.00,40.00,13,6,17,0.02
2012-4-8,71.0,69.7,68.0,-99.9,-99.9,-99.9,0,0,100,0.00,40.00,13,8,20,0.06
2012-4-9,72.0,70.2,69.0,-99.9,-99.9,-99.9,0,0,100,0.00,40.00,12,8,15,0.00
2012-4-10,71.0,67.9,64.0,-99.9,-99.9,-99.9,0,0,100,0.00,40.00,12,6,18,0.24
2012-4-11,72.0,69.0,66.0,-99.9,-99.9,-99.9,0,0,100,0.00,40.00,8,4,13,0.01
2012-4-12,77.0,71.0,68.0,-99.9,-99.9,-99.9,0,0,100,0.00,40.00,5,2,7,0.02
2012-4-13,77.0,73.2,67.0,-99.9,-99.9,-99.9,0,0,100,0.00,40.00,5,2,8,0.00
2012-4-14,78.0,70.3,64.0,-99.9,-99.9,-99.9,0,0,100,0.00,40.00,7,2,9,0.00
2012-4-15,76.0,71.5,65.0,-99.9,-99.9,-99.9,0,0,100,0.00,40.00,12,6,17,0.01
2012-4-16,78.0,72.1,69.0,-99.9,-99.9,-99.9,0,0,100,0.00,40.00,12,6,17,0.06
2012-4-17,78.0,72.3,68.0,-99.9,-99.9,-99.9,0,0,100,0.00,40.00,16,8,21,0.00
2012-4-18,76.0,72.6,69.0,-99.9,-99.9,-99.9,0,0,100,0.00,40.00,13,8,18,0.00
2012-4-19,78.0,71.6,67.0,-99.9,-99.9,-99.9,0,0,100,0.00,40.00,13,5,17,0.00
2012-4-20,77.0,71.8,66.0,-99.9,-99.9,-99.9,0,0,100,0.00,40.00,10,4,16,0.00
2012-4-21,76.0,70.6,66.0,-99.9,-99.9,-99.9,0,0,100,0.00,40.00,10,5,20,0.10
2012-4-22,73.0,70.8,69.0,-99.9,-99.9,-99.9,0,0,100,0.00,40.00,10,8,18,0.08
2012-4-23,76.0,71.7,69.0,-99.9,-99.9,-99.9,0,0,100,0.00,40.00,14,11,21,0.03
2012-4-24,74.0,70.5,67.0,-99.9,-99.9,-99.9,0,0,100,0.00,40.00,13,6,18,0.01
2012-4-25,76.0,71.0,66.0,-99.9,-99.9,-99.9,0,0,100,0.00,40.00,15,7,21,0.02
2012-4-26,76.0,70.8,66.0,-99.9,-99.9,-99.9,0,0,100,0.00,40.00,7,3,9,0.14
2012-4-27,76.0,69.9,64.0,-99.9,-99.9,-99.9,0,0,100,0.00,40.00,9,4,14,0.02
2012-4-28,74.0,70.7,69.0,-99.9,-99.9,-99.9,0,0,100,0.00,40.00,12,7,17,0.11
2012-5-2,76.0,72.1,69.0,-99.9,-99.9,-99.9,0,0,100,0.00,40.00,10,7,15,0.02
2012-5-3,75.0,70.8,67.0,-99.9,-99.9,-99.9,0,0,100,0.00,40.00,13,7,20,0.28
2012-5-4,72.0,69.6,67.0,-99.9,-99.9,-99.9,0,0,100,0.00,40.00,12,6,16,0.15
2012-5-5,77.0,71.2,67.0,-99.9,-99.9,-99.9,0,0,100,0.00,40.00,13,6,18,0.02
2012-5-6,76.0,71.9,67.0,-99.9,-99.9,-99.9,0,0,100,0.00,40.00,15,7,21,0.09
2012-5-7,77.0,72.4,68.0,-99.9,-99.9,-99.9,0,0,100,0.00,40.00,10,6,18,0.22
2012-5-8,74.0,69.7,67.0,-99.9,-99.9,-99.9,0,0,100,0.00,40.00,8,5,12,0.02
2012-5-9,76.0,72.1,67.0,-99.9,-99.9,-99.9,0,0,100,0.00,40.00,12,6,17,0.03
2012-5-10,76.0,72.0,69.0,-99.9,-99.9,-99.9,0,0,100,0.00,40.00,9,5,14,0.05
2012-5-11,77.0,70.8,66.0,-99.9,-99.9,-99.9,0,0,100,0.00,40.00,9,4,15,0.04
2012-5-12,78.0,70.0,64.0,-99.9,-99.9,-99.9,0,0,100,0.00,40.00,9,3,14,0.09
2012-5-13,77.0,70.6,62.0,-99.9,-99.9,-99.9,0,0,100,0.00,40.00,7,2,10,0.01
2012-5-14,78.0,70.8,63.0,-99.9,-99.9,-99.9,0,0,100,0.00,40.00,5,2,8,0.00
2012-5-15,79.0,72.4,68.0,-99.9,-99.9,-99.9,0,0,100,0.00,40.00,6,2,8,0.00
2012-5-16,80.0,74.4,70.0,-99.9,-99.9,-99.9,0,0,100,0.00,40.00,9,5,15,0.00
2012-5-17,79.0,73.3,69.0,-99.9,-99.9,-99.9,0,0,100,0.00,40.00,12,6,14,0.08
2012-5-18,79.0,73.4,67.0,-99.9,-99.9,-99.9,0,0,100,0.00,40.00,12,5,17,0.12
2012-5-19,78.0,72.1,66.0,-99.9,-99.9,-99.9,0,0,100,0.00,40.00,10,5,15,0.00
2012-5-20,79.0,72.3,67.0,-99.9,-99.9,-99.9,0,0,100,0.00,40.00,12,4,17,0.00
2012-5-21,80.0,73.5,67.0,-99.9,-99.9,-99.9,0,0,100,0.00,40.00,13,5,17,0.00
2012-5-22,77.0,73.3,71.0,-99.9,-99.9,-99.9,0,0,100,0.00,40.00,13,6,18,0.00
2012-5-23,78.0,74.1,71.0,-99.9,-99.9,-99.9,0,0,100,0.00,40.00,16,9,29,0.00
2012-5-24,75.0,73.0,71.0,-99.9,-99.9,-99.9,0,0,100,0.00,40.00,12,8,21,0.00
2012-5-25,80.0,73.8,70.0,-99.9,-99.9,-99.9,0,0,100,0.00,40.00,12,8,18,0.09
2012-5-26,78.0,73.0,68.0,-99.9,-99.9,-99.9,0,0,100,0.00,40.00,16,8,24,0.25
2012-5-27,78.0,73.4,71.0,-99.9,-99.9,-99.9,0,0,100,0.00,40.00,15,9,18,0.03
2012-5-28,78.0,73.2,68.0,-99.9,-99.9,-99.9,0,0,100,0.00,40.00,16,9,24,0.02
2012-5-29,77.0,72.9,70.0,-99.9,-99.9,-99.9,0,0,100,0.00,40.00,15,8,21,0.00
2012-5-30,78.0,73.1,70.0,-99.9,-99.9,-99.9,0,0,100,0.00,40.00,14,7,21,0.01
2012-5-31,78.0,73.4,69.0,-99.9,-99.9,-99.9,0,0,100,0.00,40.00,12,7,17,0.03
2012-6-1,78.0,74.0,70.0,-99.9,-99.9,-99.9,0,0,100,0.00,40.00,15,9,22,0.01
2012-6-2,78.0,73.4,70.0,-99.9,-99.9,-99.9,0,0,100,0.00,40.00,13,7,18,0.01
2012-6-3,78.0,73.4,67.0,-99.9,-99.9,-99.9,0,0,100,0.00,40.00,12,6,17,0.05
2012-6-4,78.0,73.2,67.0,-99.9,-99.9,-99.9,0,0,100,0.00,40.00,13,7,17,0.03
2012-6-5,77.0,73.4,69.0,-99.9,-99.9,-99.9,0,0,100,0.00,40.00,12,7,18,0.00
2012-6-6,78.0,73.3,70.0,-99.9,-99.9,-99.9,0,0,100,0.00,40.00,12,7,17,0.16
2012-6-7,80.0,74.7,70.0,-99.9,-99.9,-99.9,0,0,100,0.00,40.00,13,7,20,0.01
2012-6-8,79.0,74.7,71.0,-99.9,-99.9,-99.9,0,0,100,0.00,40.00,12,7,16,0.00
2012-6-9,80.0,74.4,70.0,-99.9,-99.9,-99.9,0,0,100,0.00,40.00,13,7,18,0.00
2012-6-10,79.0,73.2,69.0,-99.9,-99.9,-99.9,0,0,100,0.00,40.00,12,6,16,0.06
2012-6-11,80.0,73.6,68.0,-99.9,-99.9,-99.9,0,0,100,0.00,40.00,13,4,16,0.06
2012-6-12,69.0,68.3,68.0,-99.9,-99.9,-99.9,0,0,100,0.00,40.00,2,0,3,0.07
2012-6-20,76.0,73.9,71.0,-99.9,-99.9,-99.9,0,0,100,0.00,40.00,12,5,16,0.00
2012-6-21,80.0,73.8,69.0,-99.9,-99.9,-99.9,0,0,100,0.00,40.00,13,6,18,0.02
2012-6-22,78.0,73.5,69.0,-99.9,-99.9,-99.9,0,0,100,0.00,40.00,12,6,16,0.00
2012-6-23,77.0,73.8,70.0,-99.9,-99.9,-99.9,0,0,100,0.00,40.00,13,8,17,0.04
2012-6-24,78.0,75.1,70.0,-99.9,-99.9,-99.9,0,0,100,0.00,40.00,14,10,22,0.01
2012-6-25,78.0,73.2,69.0,-99.9,-99.9,-99.9,0,0,100,0.00,40.00,16,9,22,0.18
2012-6-26,78.0,73.9,69.0,-99.9,-99.9,-99.9,0,0,100,0.00,40.00,10,7,18,0.08
2012-6-27,78.0,73.9,68.0,-99.9,-99.9,-99.9,0,0,100,0.00,40.00,12,8,18,0.06
2012-6-28,78.0,73.9,69.0,-99.9,-99.9,-99.9,0,0,100,0.00,40.00,13,6,17,0.00
2012-6-29,79.0,73.9,69.0,-99.9,-99.9,-99.9,0,0,100,0.00,40.00,12,6,17,0.00
2012-6-30,78.0,73.7,71.0,-99.9,-99.9,-99.9,0,0,100,0.00,40.00,10,6,15,0.05
2012-7-1,79.0,73.6,69.0,-99.9,-99.9,-99.9,0,0,100,0.00,40.00,13,5,16,0.05
2012-7-2,80.0,73.9,70.0,-99.9,-99.9,-99.9,0,0,100,0.00,40.00,12,6,17,0.05
2012-7-3,75.0,72.8,71.0,-99.9,-99.9,-99.9,0,0,100,0.00,40.00,13,6,21,0.18
2012-7-4,78.0,73.5,69.0,-99.9,-99.9,-99.9,0,0,100,0.00,40.00,9,4,15,0.00
2012-7-5,77.0,75.1,73.0,-99.9,-99.9,-99.9,0,0,100,0.00,40.00,12,9,21,0.03
2012-7-6,77.0,73.7,71.0,-99.9,-99.9,-99.9,0,0,100,0.00,40.00,13,8,20,0.07
2012-7-7,79.0,74.9,71.0,-99.9,-99.9,-99.9,0,0,100,0.00,40.00,14,9,22,0.00
2012-7-8,79.0,74.3,70.0,-99.9,-99.9,-99.9,0,0,100,0.00,40.00,13,8,20,0.01
2012-7-9,79.0,74.5,69.0,-99.9,-99.9,-99.9,0,0,100,0.00,40.00,13,9,21,0.05
2012-7-10,78.0,74.2,70.0,-99.9,-99.9,-99.9,0,0,100,0.00,40.00,13,7,17,0.01
2012-7-11,79.0,73.9,69.0,-99.9,-99.9,-99.9,0,0,100,0.00,40.00,12,5,16,0.00
2012-7-12,80.0,74.5,69.0,-99.9,-99.9,-99.9,0,0,100,0.00,40.00,12,6,16,0.00
2012-7-13,79.0,74.4,70.0,-99.9,-99.9,-99.9,0,0,100,0.00,40.00,14,7,21,0.28
2012-7-14,81.0,74.9,71.0,-99.9,-99.9,-99.9,0,0,100,0.00,40.00,12,7,17,0.08
2012-7-15,80.0,75.0,71.0,-99.9,-99.9,-99.9,0,0,100,0.00,40.00,13,7,21,0.00
2012-7-16,79.0,74.1,71.0,-99.9,-99.9,-99.9,0,0,100,0.00,40.00,14,7,20,0.15
2012-7-17,76.0,73.0,70.0,-99.9,-99.9,-99.9,0,0,100,0.00,40.00,13,7,20,0.23
2012-7-18,77.0,74.1,71.0,-99.9,-99.9,-99.9,0,0,100,0.00,40.00,13,8,18,0.08
2012-7-19,79.0,74.6,70.0,-99.9,-99.9,-99.9,0,0,100,0.00,40.00,12,6,15,0.13
2012-7-20,79.0,73.1,67.0,-99.9,-99.9,-99.9,0,0,100,0.00,40.00,7,3,10,0.05
2012-7-21,80.0,71.3,66.0,-99.9,-99.9,-99.9,0,0,100,0.00,40.00,7,2,9,0.04
2012-7-22,78.0,71.1,67.0,-99.9,-99.9,-99.9,0,0,100,0.00,40.00,7,2,10,0.09
2012-7-23,80.0,74.1,69.0,-99.9,-99.9,-99.9,0,0,100,0.00,40.00,12,5,15,0.08
2012-7-24,80.0,74.1,71.0,-99.9,-99.9,-99.9,0,0,100,0.00,40.00,12,6,16,0.10
2012-7-25,78.0,71.9,69.0,-99.9,-99.9,-99.9,0,0,100,0.00,40.00,10,6,16,0.06
2012-7-26,78.0,73.5,71.0,-99.9,-99.9,-99.9,0,0,100,0.00,40.00,9,5,13,0.00
2012-7-27,79.0,73.4,69.0,-99.9,-99.9,-99.9,0,0,100,0.00,40.00,10,5,15,0.16
2012-7-28,78.0,73.2,69.0,-99.9,-99.9,-99.9,0,0,100,0.00,40.00,13,5,20,0.45
2012-7-29,78.0,73.6,69.0,-99.9,-99.9,-99.9,0,0,100,0.00,40.00,12,6,16,0.22
2012-7-30,77.0,72.9,69.0,-99.9,-99.9,-99.9,0,0,100,0.00,40.00,9,4,14,0.21
2012-7-31,80.0,75.2,72.0,-99.9,-99.9,-99.9,0,0,100,0.00,40.00,13,7,21,0.01
2012-8-1,80.0,74.7,71.0,-99.9,-99.9,-99.9,0,0,100,0.00,40.00,9,5,14,0.03
2012-8-2,79.0,74.0,69.0,-99.9,-99.9,-99.9,0,0,100,0.00,40.00,12,4,15,0.01
2012-8-3,81.0,75.0,70.0,-99.9,-99.9,-99.9,0,0,100,0.00,40.00,13,6,21,0.03
2012-8-4,81.0,74.5,70.0,-99.9,-99.9,-99.9,0,0,100,0.00,40.00,10,5,15,0.00
2012-8-5,80.0,73.9,70.0,-99.9,-99.9,-99.9,0,0,100,0.00,40.00,10,4,15,0.11
2012-8-6,80.0,73.5,69.0,-99.9,-99.9,-99.9,0,0,100,0.00,40.00,10,5,15,0.07
2012-8-7,79.0,74.4,70.0,-99.9,-99.9,-99.9,0,0,100,0.00,40.00,13,6,20,0.00
2012-8-8,79.0,74.9,72.0,-99.9,-99.9,-99.9,0,0,100,0.00,40.00,14,7,20,0.01
2012-8-9,79.0,75.3,72.0,-99.9,-99.9,-99.9,0,0,100,0.00,40.00,10,5,15,0.00
2012-8-10,80.0,75.4,71.0,-99.9,-99.9,-99.9,0,0,100,0.00,40.00,12,5,16,0.00
2012-8-11,81.0,74.3,70.0,-99.9,-99.9,-99.9,0,0,100,0.00,40.00,9,4,14,0.12
2012-8-12,81.0,74.6,70.0,-99.9,-99.9,-99.9,0,0,100,0.00,40.00,12,6,17,0.02
2012-8-13,82.0,75.6,72.0,-99.9,-99.9,-99.9,0,0,100,0.00,40.00,12,6,16,0.06
2012-8-14,80.0,75.0,71.0,-99.9,-99.9,-99.9,0,0,100,0.00,40.00,10,6,16,0.01
2012-8-15,80.0,76.6,72.0,-99.9,-99.9,-99.9,0,0,100,0.00,40.00,14,6,17,0.00
2012-8-16,80.0,75.0,71.0,-99.9,-99.9,-99.9,0,0,100,0.00,40.00,10,4,15,0.00
2012-8-17,81.0,75.4,71.0,-99.9,-99.9,-99.9,0,0,100,0.00,40.00,10,4,17,0.00
2012-8-18,80.0,74.9,70.0,-99.9,-99.9,-99.9,0,0,100,0.00,40.00,7,3,12,0.12
2012-8-19,80.0,74.0,71.0,-99.9,-99.9,-99.9,0,0,100,0.00,40.00,10,4,13,0.28
2012-8-20,80.0,75.2,72.0,-99.9,-99.9,-99.9,0,0,100,0.00,40.00,13,5,17,0.00
2012-8-21,81.0,74.8,70.0,-99.9,-99.9,-99.9,0,0,100,0.00,40.00,10,4,16,0.00
2012-8-22,80.0,74.4,70.0,-99.9,-99.9,-99.9,0,0,100,0.00,40.00,9,3,14,0.14
2012-8-23,81.0,74.2,68.0,-99.9,-99.9,-99.9,0,0,100,0.00,40.00,9,3,14,0.10
2012-8-24,82.0,74.9,69.0,-99.9,-99.9,-99.9,0,0,100,0.00,40.00,12,4,17,0.02
2012-8-25,82.0,75.9,72.0,-99.9,-99.9,-99.9,0,0,100,0.00,40.00,10,5,15,0.00
2012-8-26,81.0,75.4,71.0,-99.9,-99.9,-99.9,0,0,100,0.00,40.00,10,4,16,0.02
2012-8-27,79.0,73.7,70.0,-99.9,-99.9,-99.9,0,0,100,0.00,40.00,10,4,15,0.18
2012-8-28,79.0,74.3,70.0,-99.9,-99.9,-99.9,0,0,100,0.00,40.00,10,5,15,0.07
2012-8-29,76.0,72.7,69.0,-99.9,-99.9,-99.9,0,0,100,0.00,40.00,12,5,15,0.57
2012-8-30,80.0,74.1,70.0,-99.9,-99.9,-99.9,0,0,100,0.00,40.00,12,5,15,0.03
2012-8-31,78.0,74.3,71.0,-99.9,-99.9,-99.9,0,0,100,0.00,40.00,9,5,15,0.05
2012-9-1,80.0,74.7,71.0,-99.9,-99.9,-99.9,0,0,100,0.00,40.00,13,6,22,0.05
2012-9-2,80.0,74.7,72.0,-99.9,-99.9,-99.9,0,0,100,0.00,40.00,15,7,21,0.10
2012-9-3,79.0,74.2,71.0,-99.9,-99.9,-99.9,0,0,100,0.00,40.00,14,7,20,0.04
2012-9-4,80.0,74.5,70.0,-99.9,-99.9,-99.9,0,0,100,0.00,40.00,14,7,18,0.02
2012-9-5,79.0,75.1,71.0,-99.9,-99.9,-99.9,0,0,100,0.00,40.00,12,7,18,0.03
2012-9-6,79.0,73.5,69.0,-99.9,-99.9,-99.9,0,0,100,0.00,40.00,14,6,27,0.17
2012-9-7,76.0,71.9,69.0,-99.9,-99.9,-99.9,0,0,100,0.00,40.00,9,4,13,0.20
2012-9-8,81.0,74.3,69.0,-99.9,-99.9,-99.9,0,0,100,0.00,40.00,12,4,16,0.20
2012-9-9,78.0,73.4,69.0,-99.9,-99.9,-99.9,0,0,100,0.00,40.00,10,4,17,0.23
2012-9-10,78.0,73.9,69.0,-99.9,-99.9,-99.9,0,0,100,0.00,40.00,12,5,17,0.00
2012-9-11,79.0,73.5,69.0,-99.9,-99.9,-99.9,0,0,100,0.00,40.00,9,4,16,0.04
2012-9-12,80.0,74.6,71.0,-99.9,-99.9,-99.9,0,0,100,0.00,40.00,12,5,16,0.02
2012-9-13,80.0,75.0,69.0,-99.9,-99.9,-99.9,0,0,100,0.00,40.00,13,7,18,0.03
2012-9-14,82.0,75.3,71.0,-99.9,-99.9,-99.9,0,0,100,0.00,40.00,12,5,20,0.01
2012-9-15,81.0,74.6,70.0,-99.9,-99.9,-99.9,0,0,100,0.00,40.00,10,4,15,0.00
2012-9-16,80.0,74.2,70.0,-99.9,-99.9,-99.9,0,0,100,0.00,40.00,12,4,16,0.09
2012-9-17,79.0,73.4,68.0,-99.9,-99.9,-99.9,0,0,100,0.00,40.00,12,4,16,0.06
2012-9-18,81.0,74.0,69.0,-99.9,-99.9,-99.9,0,0,100,0.00,40.00,10,4,14,0.00
2012-9-19,81.0,73.4,67.0,-99.9,-99.9,-99.9,0,0,100,0.00,40.00,9,3,15,0.20
2012-9-20,80.0,74.3,67.0,-99.9,-99.9,-99.9,0,0,100,0.00,40.00,8,2,10,0.24
2012-9-21,82.0,75.4,70.0,-99.9,-99.9,-99.9,0,0,100,0.00,40.00,10,4,15,0.05
2012-9-22,80.0,74.8,70.0,-99.9,-99.9,-99.9,0,0,100,0.00,40.00,12,6,16,0.00
2012-9-23,79.0,75.6,72.0,-99.9,-99.9,-99.9,0,0,100,0.00,40.00,12,6,20,0.14
2012-9-24,80.0,74.7,71.0,-99.9,-99.9,-99.9,0,0,100,0.00,40.00,9,4,14,0.01
2012-9-25,80.0,74.5,69.0,-99.9,-99.9,-99.9,0,0,100,0.00,40.00,10,4,16,0.00
2012-9-26,80.0,74.2,71.0,-99.9,-99.9,-99.9,0,0,100,0.00,40.00,12,5,17,0.02
2012-9-27,80.0,74.3,70.0,-99.9,-99.9,-99.9,0,0,100,0.00,40.00,12,5,16,0.01
2012-9-28,80.0,73.7,71.0,-99.9,-99.9,-99.9,0,0,100,0.00,40.00,10,4,13,0.07
2012-9-29,82.0,76.2,71.0,-99.9,-99.9,-99.9,0,0,100,0.00,40.00,10,5,17,0.00
2012-9-30,82.0,75.1,71.0,-99.9,-99.9,-99.9,0,0,100,0.00,40.00,9,1,14,0.01
2012-10-1,83.0,75.1,68.0,-99.9,-99.9,-99.9,0,0,100,0.00,40.00,9,2,14,0.00
2012-10-2,83.0,74.4,67.0,-99.9,-99.9,-99.9,0,0,100,0.00,40.00,9,3,13,0.00
2012-10-3,83.0,75.0,69.0,-99.9,-99.9,-99.9,0,0,100,0.00,40.00,10,4,15,0.00
2012-10-4,83.0,75.4,68.0,-99.9,-99.9,-99.9,0,0,100,0.00,40.00,10,4,15,0.00
2012-10-5,82.0,74.1,66.0,-99.9,-99.9,-99.9,0,0,100,0.00,40.00,6,2,9,0.00
2012-10-6,83.0,75.2,68.0,-99.9,-99.9,-99.9,0,0,100,0.00,40.00,8,2,9,0.00
2012-10-7,81.0,74.6,68.0,-99.9,-99.9,-99.9,0,0,100,0.00,40.00,5,2,7,0.00
2012-10-8,83.0,76.6,71.0,-99.9,-99.9,-99.9,0,0,100,0.00,40.00,3,1,6,0.00
2012-10-9,83.0,76.8,69.0,-99.9,-99.9,-99.9,0,0,100,0.00,40.00,6,2,9,0.00
2012-10-10,86.0,77.0,70.0,-99.9,-99.9,-99.9,0,0,100,0.00,40.00,7,3,10,0.00
2012-10-11,84.0,76.1,71.0,-99.9,-99.9,-99.9,0,0,100,0.00,40.00,10,4,15,0.00
2012-10-12,83.0,76.3,72.0,-99.9,-99.9,-99.9,0,0,100,0.00,40.00,10,5,17,0.00
2012-10-13,82.0,76.5,72.0,-99.9,-99.9,-99.9,0,0,100,0.00,40.00,10,5,13,0.00
2012-10-14,81.0,76.1,72.0,-99.9,-99.9,-99.9,0,0,100,0.00,40.00,12,6,15,0.04
2012-10-15,82.0,75.8,71.0,-99.9,-99.9,-99.9,0,0,100,0.00,40.00,12,5,18,0.01
2012-10-16,80.0,74.7,71.0,-99.9,-99.9,-99.9,0,0,100,0.00,40.00,9,5,15,0.16
2012-10-17,83.0,74.5,67.0,-99.9,-99.9,-99.9,0,0,100,0.00,40.00,12,4,16,0.00
2012-10-18,82.0,75.0,67.0,-99.9,-99.9,-99.9,0,0,100,0.00,40.00,13,5,17,0.00
2012-10-19,80.0,74.8,70.0,-99.9,-99.9,-99.9,0,0,100,0.00,40.00,13,6,18,0.00
2012-10-20,80.0,74.6,71.0,-99.9,-99.9,-99.9,0,0,100,0.00,40.00,10,5,16,0.05
2012-10-21,80.0,75.3,71.0,-99.9,-99.9,-99.9,0,0,100,0.00,40.00,13,7,18,0.02
2012-10-22,80.0,75.1,72.0,-99.9,-99.9,-99.9,0,0,100,0.00,40.00,12,6,18,0.00
2012-10-23,81.0,74.7,69.0,-99.9,-99.9,-99.9,0,0,100,0.00,40.00,10,4,16,0.00
2012-10-24,82.0,73.4,65.0,-99.9,-99.9,-99.9,0,0,100,0.00,40.00,7,2,14,0.00
2012-10-25,84.0,76.1,70.0,-99.9,-99.9,-99.9,0,0,100,0.00,40.00,5,1,7,0.00
2012-10-26,81.0,75.2,69.0,-99.9,-99.9,-99.9,0,0,100,0.00,40.00,5,1,7,0.00
2012-10-27,81.0,75.4,69.0,-99.9,-99.9,-99.9,0,0,100,0.00,40.00,6,2,8,0.00
2012-10-28,81.0,74.8,70.0,-99.9,-99.9,-99.9,0,0,100,0.00,40.00,8,3,13,0.07
2012-10-29,80.0,74.3,70.0,-99.9,-99.9,-99.9,0,0,100,0.00,40.00,10,4,15,0.09
2012-10-30,81.0,73.9,68.0,-99.9,-99.9,-99.9,0,0,100,0.00,40.00,8,4,14,0.00
2012-10-31,79.0,71.8,66.0,-99.9,-99.9,-99.9,0,0,100,0.00,40.00,8,3,13,0.00
2012-11-1,81.0,72.8,67.0,-99.9,-99.9,-99.9,0,0,100,0.00,40.00,12,3,16,0.00
2012-11-2,79.0,72.8,64.0,-99.9,-99.9,-99.9,0,0,100,0.00,40.00,9,2,14,0.00
2012-11-3,84.0,74.8,67.0,-99.9,-99.9,-99.9,0,0,100,0.00,40.00,6,2,8,0.00
2012-11-4,82.0,74.7,68.0,-99.9,-99.9,-99.9,0,0,100,0.00,40.00,6,2,8,0.00
2012-11-5,81.0,72.7,67.0,-99.9,-99.9,-99.9,0,0,100,0.00,40.00,8,3,16,0.02
2012-11-6,79.0,74.2,72.0,-99.9,-99.9,-99.9,0,0,100,0.00,40.00,9,6,17,0.10
2012-11-7,80.0,74.0,70.0,-99.9,-99.9,-99.9,0,0,100,0.00,40.00,10,4,16,0.01
2012-11-8,80.0,73.7,69.0,-99.9,-99.9,-99.9,0,0,100,0.00,40.00,10,3,14,0.00
2012-11-9,78.0,73.6,71.0,-99.9,-99.9,-99.9,0,0,100,0.00,40.00,12,4,17,0.04
2012-11-10,78.0,72.6,69.0,-99.9,-99.9,-99.9,0,0,100,0.00,40.00,10,4,14,0.10
2012-11-11,78.0,73.5,71.0,-99.9,-99.9,-99.9,0,0,100,0.00,40.00,8,4,13,0.01
2012-11-12,78.0,73.9,69.0,-99.9,-99.9,-99.9,0,0,100,0.00,40.00,8,4,14,0.12
2012-11-13,77.0,72.9,70.0,-99.9,-99.9,-99.9,0,0,100,0.00,40.00,10,4,15,0.06
2012-11-14,77.0,73.4,70.0,-99.9,-99.9,-99.9,0,0,100,0.00,40.00,10,6,15,0.04
2012-11-15,76.0,72.2,69.0,-99.9,-99.9,-99.9,0,0,100,0.00,40.00,9,4,12,0.02
2012-11-16,77.0,73.2,70.0,-99.9,-99.9,-99.9,0,0,100,0.00,40.00,9,7,15,0.01
2012-11-17,76.0,71.3,69.0,-99.9,-99.9,-99.9,0,0,100,0.00,40.00,14,6,21,0.14
2012-11-18,78.0,73.9,71.0,-99.9,-99.9,-99.9,0,0,100,0.00,40.00,9,4,13,0.00
2012-11-19,76.0,73.2,71.0,-99.9,-99.9,-99.9,0,0,100,0.00,40.00,10,5,14,0.01
2012-11-20,76.0,72.9,71.0,-99.9,-99.9,-99.9,0,0,100,0.00,40.00,10,6,14,0.00
2012-11-21,78.0,72.5,67.0,-99.9,-99.9,-99.9,0,0,100,0.00,40.00,7,1,13,0.00
2012-11-22,78.0,73.7,69.0,-99.9,-99.9,-99.9,0,0,100,0.00,40.00,6,2,7,0.00
2012-11-23,78.0,71.9,67.0,-99.9,-99.9,-99.9,0,0,100,0.00,40.00,6,2,7,0.00
2012-11-24,78.0,73.6,69.0,-99.9,-99.9,-99.9,0,0,100,0.00,40.00,8,3,12,0.00
2012-11-25,76.0,72.5,68.0,-99.9,-99.9,-99.9,0,0,100,0.00,40.00,6,2,8,0.02
2012-11-27,75.0,71.9,67.0,-99.9,-99.9,-99.9,0,0,100,0.00,40.00,8,6,13,0.00
2012-11-28,76.0,69.8,65.0,-99.9,-99.9,-99.9,0,0,100,0.00,40.00,10,3,16,0.00
2012-11-29,76.0,71.7,65.0,-99.9,-99.9,-99.9,0,0,100,0.00,40.00,2,0,6,0.00
2012-11-30,78.0,73.3,67.0,-99.9,-99.9,-99.9,0,0,100,0.00,40.00,3,1,6,0.00
2012-12-1,76.0,73.0,66.0,-99.9,-99.9,-99.9,0,0,100,0.00,40.00,3,1,5,0.00
2012-12-2,80.0,74.1,70.0,-99.9,-99.9,-99.9,0,0,100,0.00,40.00,6,1,8,0.00
2012-12-3,78.0,76.0,70.0,-99.9,-99.9,-99.9,0,0,100,0.00,40.00,7,3,10,0.00
2012-12-4,81.0,75.7,73.0,-99.9,-99.9,-99.9,0,0,100,0.00,40.00,6,2,7,0.01
2012-12-5,78.0,75.4,72.0,-99.9,-99.9,-99.9,0,0,100,0.00,40.00,9,6,16,0.01
2012-12-6,78.0,74.1,71.0,-99.9,-99.9,-99.9,0,0,100,0.00,40.00,12,5,16,0.00
2012-12-7,80.0,76.2,72.0,-99.9,-99.9,-99.9,0,0,100,0.00,40.00,9,3,15,0.00
2012-12-8,72.0,72.0,72.0,-99.9,-99.9,-99.9,0,0,100,0.00,40.00,3,3,7,0.00
2012-12-9,76.0,75.5,75.0,-99.9,-99.9,-99.9,0,0,100,0.00,40.00,9,8,15,0.00
2012-12-10,77.0,74.6,72.0,-99.9,-99.9,-99.9,0,0,100,0.00,40.00,15,10,23,0.00
2012-12-11,75.0,72.3,71.0,-99.9,-99.9,-99.9,0,0,100,0.00,40.00,9,6,14,0.00
2012-12-12,76.0,72.7,69.0,-99.9,-99.9,-99.9,0,0,100,0.00,40.00,15,8,20,0.05
2012-12-13,75.0,74.0,73.0,-99.9,-99.9,-99.9,0,0,100,0.00,40.00,12,10,16,0.00
2012-12-14,76.0,73.3,71.0,-99.9,-99.9,-99.9,0,0,100,0.00,40.00,12,9,20,0.00
2012-12-15,76.0,73.0,69.0,-99.9,-99.9,-99.9,0,0,100,0.00,40.00,13,9,18,0.04
2012-12-16,75.0,73.1,69.0,-99.9,-99.9,-99.9,0,0,100,0.00,40.00,13,9,18,0.15
2012-12-17,74.0,73.0,72.0,-99.9,-99.9,-99.9,0,0,100,0.00,40.00,10,10,16,0.00
2012-12-18,73.0,71.0,70.0,-99.9,-99.9,-99.9,0,0,100,0.00,40.00,9,8,14,0.26
2012-12-19,75.0,72.8,71.0,-99.9,-99.9,-99.9,0,0,100,0.00,40.00,13,10,20,0.03
2012-12-20,74.0,72.5,71.0,-99.9,-99.9,-99.9,0,0,100,0.00,40.00,13,10,18,0.01
2012-12-21,75.0,72.4,69.0,-99.9,-99.9,-99.9,0,0,100,0.00,40.00,14,10,20,0.00
2012-12-22,75.0,73.3,72.0,-99.9,-99.9,-99.9,0,0,100,0.00,40.00,9,7,14,0.00
2012-12-23,100.0,77.7,72.0,-99.9,-99.9,-99.9,0,0,100,0.00,40.00,6,3,9,0.00
2012-12-24,73.0,73.0,73.0,-99.9,-99.9,-99.9,0,0,100,0.00,40.00,3,3,5,0.00
2012-12-26,76.0,73.8,72.0,-99.9,-99.9,-99.9,0,0,100,0.00,40.00,10,8,16,0.00
2012-12-27,76.0,73.2,70.0,-99.9,-99.9,-99.9,0,0,100,0.00,40.00,10,6,15,0.00
2012-12-28,77.0,74.5,71.0,-99.9,-99.9,-99.9,0,0,100,0.00,40.00,3,2,6,0.00
2012-12-29,78.0,75.3,71.0,-99.9,-99.9,-99.9,0,0,100,0.00,40.00,6,3,9,0.00
2012-12-30,79.0,75.2,70.0,-99.9,-99.9,-99.9,0,0,100,0.00,40.00,5,2,6,0.00
2012-12-31,75.0,73.8,73.0,-99.9,-99.9,-99.9,0,0,100,0.00,40.00,7,3,12,0.00